Mc Cool, Mississippi
Current Conditions -  °F | °C
As of 12:55 AM on Monday 22 Dec 2014 (Local Time) from KSTF Reporting Station
Haze Haze  
Wind Chill: 46°   Ceiling: 900
Heat Index: 48°   Visibility: 5mi
Dew Point: 46°   Wind: 6mph
Humidity: 93%   Direction: 140°SE
Pressure: 29.96"   Gusts: NA
Location:  33.1664°N, 89.3301°W
Report Text: KSTF 220655Z AUTO 14005KT 5SM BR OVC009 09/08 A2996 RMK AO2
Loading
Personal Weather Stations






























Interactive Weather Map New forecast layout! Learn more

10-Day Weather Forecast

Advertisements
Track Severe Weather on mobile